sensor_id;sensor_type;location;lat;lon;timestamp;P1;durP1;ratioP1;P2;durP2;ratioP2
73779;SDS011;62093;37.614;15.072;2023-06-26T00:01:23;9.13;;;5.97;;
73779;SDS011;62093;37.614;15.072;2023-06-26T00:03:49;10.85;;;6.45;;
73779;SDS011;62093;37.614;15.072;2023-06-26T00:06:15;11.25;;;6.20;;
73779;SDS011;62093;37.614;15.072;2023-06-26T00:08:41;12.18;;;6.28;;
73779;SDS011;62093;37.614;15.072;2023-06-26T00:11:08;11.63;;;6.20;;
73779;SDS011;62093;37.614;15.072;2023-06-26T00:13:34;11.30;;;6.38;;
73779;SDS011;62093;37.614;15.072;2023-06-26T00:16:00;9.98;;;6.28;;
73779;SDS011;62093;37.614;15.072;2023-06-26T00:18:28;11.70;;;6.23;;
73779;SDS011;62093;37.614;15.072;2023-06-26T00:20:54;12.85;;;6.65;;
73779;SDS011;62093;37.614;15.072;2023-06-26T00:23:20;10.75;;;6.30;;
73779;SDS011;62093;37.614;15.072;2023-06-26T00:25:46;10.80;;;6.38;;
73779;SDS011;62093;37.614;15.072;2023-06-26T00:28:12;10.10;;;6.20;;
73779;SDS011;62093;37.614;15.072;2023-06-26T00:30:38;11.00;;;6.70;;
73779;SDS011;62093;37.614;15.072;2023-06-26T00:33:04;11.60;;;6.23;;
73779;SDS011;62093;37.614;15.072;2023-06-26T00:35:30;12.18;;;6.55;;
73779;SDS011;62093;37.614;15.072;2023-06-26T00:37:56;10.52;;;6.28;;
73779;SDS011;62093;37.614;15.072;2023-06-26T00:40:22;11.77;;;6.50;;
73779;SDS011;62093;37.614;15.072;2023-06-26T00:42:48;10.77;;;5.88;;
73779;SDS011;62093;37.614;15.072;2023-06-26T00:45:15;12.43;;;6.78;;
73779;SDS011;62093;37.614;15.072;2023-06-26T00:47:40;11.23;;;6.30;;
73779;SDS011;62093;37.614;15.072;2023-06-26T00:50:06;10.23;;;6.03;;
73779;SDS011;62093;37.614;15.072;2023-06-26T00:52:33;12.82;;;6.68;;
73779;SDS011;62093;37.614;15.072;2023-06-26T00:54:59;10.60;;;6.78;;
73779;SDS011;62093;37.614;15.072;2023-06-26T00:57:25;11.67;;;6.47;;
73779;SDS011;62093;37.614;15.072;2023-06-26T00:59:52;13.38;;;7.07;;
73779;SDS011;62093;37.614;15.072;2023-06-26T01:02:20;10.20;;;6.30;;
73779;SDS011;62093;37.614;15.072;2023-06-26T01:04:49;10.63;;;6.35;;
73779;SDS011;62093;37.614;15.072;2023-06-26T01:07:16;11.13;;;6.88;;
73779;SDS011;62093;37.614;15.072;2023-06-26T01:09:44;11.53;;;6.77;;
73779;SDS011;62093;37.614;15.072;2023-06-26T01:12:12;11.63;;;6.65;;
73779;SDS011;62093;37.614;15.072;2023-06-26T01:14:38;12.63;;;7.07;;
73779;SDS011;62093;37.614;15.072;2023-06-26T01:17:04;10.90;;;6.65;;
73779;SDS011;62093;37.614;15.072;2023-06-26T01:19:31;11.37;;;6.63;;
73779;SDS011;62093;37.614;15.072;2023-06-26T01:22:12;12.68;;;6.90;;
73779;SDS011;62093;37.614;15.072;2023-06-26T01:24:45;10.48;;;6.65;;
73779;SDS011;62093;37.614;15.072;2023-06-26T01:27:23;12.50;;;6.72;;
73779;SDS011;62093;37.614;15.072;2023-06-26T01:29:51;11.75;;;6.30;;
73779;SDS011;62093;37.614;15.072;2023-06-26T01:32:18;10.73;;;6.53;;
73779;SDS011;62093;37.614;15.072;2023-06-26T01:34:45;12.02;;;6.63;;
73779;SDS011;62093;37.614;15.072;2023-06-26T01:37:11;11.63;;;6.45;;
73779;SDS011;62093;37.614;15.072;2023-06-26T01:39:37;10.97;;;6.47;;
73779;SDS011;62093;37.614;15.072;2023-06-26T01:42:03;11.57;;;6.80;;
73779;SDS011;62093;37.614;15.072;2023-06-26T01:44:29;11.52;;;6.53;;
73779;SDS011;62093;37.614;15.072;2023-06-26T01:47:01;10.15;;;6.18;;
73779;SDS011;62093;37.614;15.072;2023-06-26T01:49:41;11.18;;;6.57;;
73779;SDS011;62093;37.614;15.072;2023-06-26T01:52:21;11.40;;;6.53;;
73779;SDS011;62093;37.614;15.072;2023-06-26T01:57:43;10.32;;;6.32;;
73779;SDS011;62093;37.614;15.072;2023-06-26T02:00:16;11.35;;;6.57;;
73779;SDS011;62093;37.614;15.072;2023-06-26T02:02:44;12.25;;;6.22;;
73779;SDS011;62093;37.614;15.072;2023-06-26T02:05:13;11.10;;;6.50;;
73779;SDS011;62093;37.614;15.072;2023-06-26T02:07:39;10.20;;;6.47;;
73779;SDS011;62093;37.614;15.072;2023-06-26T02:10:05;10.18;;;6.60;;
73779;SDS011;62093;37.614;15.072;2023-06-26T02:12:32;13.32;;;7.53;;
73779;SDS011;62093;37.614;15.072;2023-06-26T02:15:00;11.75;;;7.57;;
73779;SDS011;62093;37.614;15.072;2023-06-26T02:17:25;12.53;;;7.40;;
73779;SDS011;62093;37.614;15.072;2023-06-26T02:19:54;12.65;;;7.03;;
73779;SDS011;62093;37.614;15.072;2023-06-26T02:22:20;11.63;;;7.05;;
73779;SDS011;62093;37.614;15.072;2023-06-26T02:24:47;11.33;;;6.63;;
73779;SDS011;62093;37.614;15.072;2023-06-26T02:27:13;14.90;;;6.60;;
73779;SDS011;62093;37.614;15.072;2023-06-26T02:29:39;12.70;;;6.50;;
73779;SDS011;62093;37.614;15.072;2023-06-26T02:32:07;12.85;;;8.05;;
73779;SDS011;62093;37.614;15.072;2023-06-26T02:34:34;14.00;;;9.07;;
73779;SDS011;62093;37.614;15.072;2023-06-26T02:37:00;12.45;;;9.05;;
73779;SDS011;62093;37.614;15.072;2023-06-26T02:39:27;14.63;;;9.05;;
73779;SDS011;62093;37.614;15.072;2023-06-26T02:41:53;14.02;;;9.60;;
73779;SDS011;62093;37.614;15.072;2023-06-26T02:44:21;13.93;;;9.90;;
73779;SDS011;62093;37.614;15.072;2023-06-26T02:46:47;12.90;;;9.10;;
73779;SDS011;62093;37.614;15.072;2023-06-26T02:49:13;14.73;;;8.23;;
73779;SDS011;62093;37.614;15.072;2023-06-26T02:51:38;10.63;;;7.38;;
73779;SDS011;62093;37.614;15.072;2023-06-26T02:54:11;13.07;;;7.10;;
73779;SDS011;62093;37.614;15.072;2023-06-26T02:56:38;12.10;;;7.50;;
73779;SDS011;62093;37.614;15.072;2023-06-26T02:59:03;13.20;;;7.25;;
73779;SDS011;62093;37.614;15.072;2023-06-26T03:01:29;10.98;;;6.85;;
73779;SDS011;62093;37.614;15.072;2023-06-26T03:03:55;10.77;;;6.37;;
73779;SDS011;62093;37.614;15.072;2023-06-26T03:06:21;10.07;;;6.00;;
73779;SDS011;62093;37.614;15.072;2023-06-26T03:08:48;10.70;;;6.40;;
73779;SDS011;62093;37.614;15.072;2023-06-26T03:11:14;11.07;;;6.03;;
73779;SDS011;62093;37.614;15.072;2023-06-26T03:13:40;11.65;;;6.10;;
73779;SDS011;62093;37.614;15.072;2023-06-26T03:16:06;11.52;;;6.10;;
73779;SDS011;62093;37.614;15.072;2023-06-26T03:18:32;9.90;;;6.60;;
73779;SDS011;62093;37.614;15.072;2023-06-26T03:20:58;13.35;;;6.85;;
73779;SDS011;62093;37.614;15.072;2023-06-26T03:23:26;10.13;;;6.30;;
73779;SDS011;62093;37.614;15.072;2023-06-26T03:25:52;13.77;;;6.63;;
73779;SDS011;62093;37.614;15.072;2023-06-26T03:28:25;11.80;;;6.20;;
73779;SDS011;62093;37.614;15.072;2023-06-26T03:30:51;10.93;;;6.68;;
73779;SDS011;62093;37.614;15.072;2023-06-26T03:33:17;11.20;;;6.10;;
73779;SDS011;62093;37.614;15.072;2023-06-26T03:35:43;11.02;;;6.63;;
73779;SDS011;62093;37.614;15.072;2023-06-26T03:38:12;10.67;;;6.10;;
73779;SDS011;62093;37.614;15.072;2023-06-26T03:40:40;12.13;;;6.57;;
73779;SDS011;62093;37.614;15.072;2023-06-26T03:43:06;11.32;;;6.55;;
73779;SDS011;62093;37.614;15.072;2023-06-26T03:45:42;11.18;;;6.63;;
73779;SDS011;62093;37.614;15.072;2023-06-26T03:48:08;14.37;;;6.40;;
73779;SDS011;62093;37.614;15.072;2023-06-26T03:50:35;11.93;;;6.07;;
73779;SDS011;62093;37.614;15.072;2023-06-26T03:53:02;11.77;;;6.28;;
73779;SDS011;62093;37.614;15.072;2023-06-26T03:55:28;11.38;;;6.13;;
73779;SDS011;62093;37.614;15.072;2023-06-26T03:57:53;12.13;;;6.80;;
73779;SDS011;62093;37.614;15.072;2023-06-26T04:00:20;11.65;;;6.65;;
73779;SDS011;62093;37.614;15.072;2023-06-26T04:02:46;15.20;;;8.15;;
73779;SDS011;62093;37.614;15.072;2023-06-26T04:05:12;16.88;;;9.68;;
73779;SDS011;62093;37.614;15.072;2023-06-26T04:07:38;13.27;;;7.33;;
73779;SDS011;62093;37.614;15.072;2023-06-26T04:10:05;15.05;;;7.00;;
73779;SDS011;62093;37.614;15.072;2023-06-26T04:12:33;14.13;;;7.20;;
73779;SDS011;62093;37.614;15.072;2023-06-26T04:14:59;12.00;;;6.63;;
73779;SDS011;62093;37.614;15.072;2023-06-26T04:17:25;11.73;;;6.40;;
73779;SDS011;62093;37.614;15.072;2023-06-26T04:19:51;10.63;;;6.55;;
73779;SDS011;62093;37.614;15.072;2023-06-26T04:22:17;12.33;;;6.47;;
73779;SDS011;62093;37.614;15.072;2023-06-26T04:24:42;11.40;;;6.80;;
73779;SDS011;62093;37.614;15.072;2023-06-26T04:27:11;13.88;;;7.97;;
73779;SDS011;62093;37.614;15.072;2023-06-26T04:29:39;15.45;;;8.85;;
73779;SDS011;62093;37.614;15.072;2023-06-26T04:32:05;13.40;;;8.70;;
73779;SDS011;62093;37.614;15.072;2023-06-26T04:34:32;14.10;;;7.88;;
73779;SDS011;62093;37.614;15.072;2023-06-26T04:37:00;12.77;;;7.93;;
73779;SDS011;62093;37.614;15.072;2023-06-26T04:39:29;14.25;;;7.93;;
73779;SDS011;62093;37.614;15.072;2023-06-26T04:41:55;12.23;;;7.93;;
73779;SDS011;62093;37.614;15.072;2023-06-26T04:44:21;12.55;;;7.32;;
73779;SDS011;62093;37.614;15.072;2023-06-26T04:46:47;11.93;;;7.15;;
73779;SDS011;62093;37.614;15.072;2023-06-26T04:49:12;13.33;;;7.07;;
73779;SDS011;62093;37.614;15.072;2023-06-26T04:51:38;11.38;;;6.82;;
73779;SDS011;62093;37.614;15.072;2023-06-26T04:54:07;11.82;;;6.45;;
73779;SDS011;62093;37.614;15.072;2023-06-26T04:56:34;9.43;;;6.23;;
73779;SDS011;62093;37.614;15.072;2023-06-26T04:59:00;10.88;;;6.10;;
73779;SDS011;62093;37.614;15.072;2023-06-26T05:01:26;11.23;;;6.30;;
73779;SDS011;62093;37.614;15.072;2023-06-26T05:03:58;11.35;;;6.30;;
73779;SDS011;62093;37.614;15.072;2023-06-26T05:06:24;11.50;;;6.70;;
73779;SDS011;62093;37.614;15.072;2023-06-26T05:08:50;11.13;;;6.50;;
73779;SDS011;62093;37.614;15.072;2023-06-26T05:11:15;10.85;;;6.32;;
73779;SDS011;62093;37.614;15.072;2023-06-26T05:13:41;11.30;;;6.73;;
73779;SDS011;62093;37.614;15.072;2023-06-26T05:16:07;10.18;;;6.60;;
73779;SDS011;62093;37.614;15.072;2023-06-26T05:18:34;12.05;;;6.70;;
73779;SDS011;62093;37.614;15.072;2023-06-26T05:21:00;10.68;;;6.55;;
73779;SDS011;62093;37.614;15.072;2023-06-26T05:23:27;10.70;;;6.17;;
73779;SDS011;62093;37.614;15.072;2023-06-26T05:25:56;12.05;;;6.45;;
73779;SDS011;62093;37.614;15.072;2023-06-26T05:28:23;11.73;;;6.70;;
73779;SDS011;62093;37.614;15.072;2023-06-26T05:30:50;12.95;;;6.93;;
73779;SDS011;62093;37.614;15.072;2023-06-26T05:33:17;12.07;;;6.57;;
73779;SDS011;62093;37.614;15.072;2023-06-26T05:35:47;10.90;;;6.27;;
73779;SDS011;62093;37.614;15.072;2023-06-26T05:38:14;11.90;;;6.57;;
73779;SDS011;62093;37.614;15.072;2023-06-26T05:40:40;10.75;;;6.53;;
73779;SDS011;62093;37.614;15.072;2023-06-26T05:43:06;13.63;;;6.68;;
73779;SDS011;62093;37.614;15.072;2023-06-26T05:45:33;11.15;;;6.95;;
73779;SDS011;62093;37.614;15.072;2023-06-26T05:47:58;10.67;;;6.30;;
73779;SDS011;62093;37.614;15.072;2023-06-26T05:50:24;12.77;;;7.07;;
73779;SDS011;62093;37.614;15.072;2023-06-26T05:52:51;11.98;;;6.80;;
73779;SDS011;62093;37.614;15.072;2023-06-26T05:55:17;10.68;;;6.55;;
73779;SDS011;62093;37.614;15.072;2023-06-26T05:57:43;14.63;;;6.60;;
73779;SDS011;62093;37.614;15.072;2023-06-26T06:00:11;12.15;;;7.20;;
73779;SDS011;62093;37.614;15.072;2023-06-26T06:02:41;12.98;;;6.95;;
73779;SDS011;62093;37.614;15.072;2023-06-26T06:05:08;11.48;;;6.65;;
73779;SDS011;62093;37.614;15.072;2023-06-26T06:07:34;11.63;;;6.32;;
73779;SDS011;62093;37.614;15.072;2023-06-26T06:10:01;13.77;;;6.90;;
73779;SDS011;62093;37.614;15.072;2023-06-26T06:12:28;12.88;;;7.05;;
73779;SDS011;62093;37.614;15.072;2023-06-26T06:14:55;12.32;;;6.78;;
73779;SDS011;62093;37.614;15.072;2023-06-26T06:17:21;10.40;;;6.63;;
73779;SDS011;62093;37.614;15.072;2023-06-26T06:19:47;12.20;;;6.23;;
73779;SDS011;62093;37.614;15.072;2023-06-26T06:22:13;11.32;;;6.15;;
73779;SDS011;62093;37.614;15.072;2023-06-26T06:24:39;13.55;;;7.07;;
73779;SDS011;62093;37.614;15.072;2023-06-26T06:27:05;11.10;;;6.23;;
73779;SDS011;62093;37.614;15.072;2023-06-26T06:29:30;11.80;;;6.60;;
73779;SDS011;62093;37.614;15.072;2023-06-26T06:31:56;13.57;;;6.73;;
73779;SDS011;62093;37.614;15.072;2023-06-26T06:34:22;10.40;;;6.70;;
73779;SDS011;62093;37.614;15.072;2023-06-26T06:36:48;11.43;;;6.68;;
73779;SDS011;62093;37.614;15.072;2023-06-26T06:39:15;11.65;;;6.15;;
73779;SDS011;62093;37.614;15.072;2023-06-26T06:41:41;10.90;;;5.97;;
73779;SDS011;62093;37.614;15.072;2023-06-26T06:44:07;11.93;;;6.50;;
73779;SDS011;62093;37.614;15.072;2023-06-26T06:46:33;11.70;;;6.50;;
73779;SDS011;62093;37.614;15.072;2023-06-26T06:48:59;10.95;;;6.13;;
73779;SDS011;62093;37.614;15.072;2023-06-26T06:51:25;10.47;;;6.27;;
73779;SDS011;62093;37.614;15.072;2023-06-26T06:53:51;10.95;;;6.38;;
73779;SDS011;62093;37.614;15.072;2023-06-26T06:56:17;10.75;;;5.85;;
73779;SDS011;62093;37.614;15.072;2023-06-26T06:58:43;11.13;;;6.40;;
73779;SDS011;62093;37.614;15.072;2023-06-26T07:01:11;11.60;;;6.20;;
73779;SDS011;62093;37.614;15.072;2023-06-26T07:03:39;10.95;;;6.43;;
73779;SDS011;62093;37.614;15.072;2023-06-26T07:06:05;10.45;;;6.57;;
73779;SDS011;62093;37.614;15.072;2023-06-26T07:08:31;12.10;;;6.10;;
73779;SDS011;62093;37.614;15.072;2023-06-26T07:10:57;10.15;;;6.43;;
73779;SDS011;62093;37.614;15.072;2023-06-26T07:13:23;11.55;;;6.68;;
73779;SDS011;62093;37.614;15.072;2023-06-26T07:15:49;11.17;;;6.10;;
73779;SDS011;62093;37.614;15.072;2023-06-26T07:18:15;12.13;;;6.53;;
73779;SDS011;62093;37.614;15.072;2023-06-26T07:20:41;10.23;;;5.88;;
73779;SDS011;62093;37.614;15.072;2023-06-26T07:23:07;12.30;;;6.55;;
73779;SDS011;62093;37.614;15.072;2023-06-26T07:25:33;11.10;;;5.83;;
73779;SDS011;62093;37.614;15.072;2023-06-26T07:27:59;11.23;;;6.10;;
73779;SDS011;62093;37.614;15.072;2023-06-26T07:30:25;10.70;;;5.95;;
73779;SDS011;62093;37.614;15.072;2023-06-26T07:32:51;12.00;;;6.53;;
73779;SDS011;62093;37.614;15.072;2023-06-26T07:35:16;11.40;;;6.57;;
73779;SDS011;62093;37.614;15.072;2023-06-26T07:37:42;13.90;;;6.63;;
73779;SDS011;62093;37.614;15.072;2023-06-26T07:40:08;11.60;;;5.97;;
73779;SDS011;62093;37.614;15.072;2023-06-26T07:42:35;9.45;;;5.97;;
73779;SDS011;62093;37.614;15.072;2023-06-26T07:45:01;10.35;;;6.15;;
73779;SDS011;62093;37.614;15.072;2023-06-26T07:47:27;10.43;;;6.23;;
73779;SDS011;62093;37.614;15.072;2023-06-26T07:49:53;10.65;;;5.78;;
73779;SDS011;62093;37.614;15.072;2023-06-26T07:52:19;11.18;;;6.10;;
73779;SDS011;62093;37.614;15.072;2023-06-26T07:54:44;12.60;;;6.73;;
73779;SDS011;62093;37.614;15.072;2023-06-26T07:57:11;10.85;;;6.30;;
73779;SDS011;62093;37.614;15.072;2023-06-26T07:59:38;9.48;;;5.88;;
73779;SDS011;62093;37.614;15.072;2023-06-26T08:02:04;12.57;;;6.43;;
73779;SDS011;62093;37.614;15.072;2023-06-26T08:04:30;11.93;;;6.07;;
73779;SDS011;62093;37.614;15.072;2023-06-26T08:06:57;12.98;;;6.40;;
73779;SDS011;62093;37.614;15.072;2023-06-26T08:09:26;11.13;;;6.05;;
73779;SDS011;62093;37.614;15.072;2023-06-26T08:11:53;13.00;;;6.43;;
73779;SDS011;62093;37.614;15.072;2023-06-26T08:14:19;13.33;;;6.33;;
73779;SDS011;62093;37.614;15.072;2023-06-26T08:16:45;11.95;;;6.50;;
73779;SDS011;62093;37.614;15.072;2023-06-26T08:19:12;11.38;;;6.40;;
73779;SDS011;62093;37.614;15.072;2023-06-26T08:21:39;13.10;;;6.35;;
73779;SDS011;62093;37.614;15.072;2023-06-26T08:24:05;10.93;;;6.22;;
73779;SDS011;62093;37.614;15.072;2023-06-26T08:26:32;12.67;;;6.63;;
73779;SDS011;62093;37.614;15.072;2023-06-26T08:28:57;11.10;;;6.30;;
73779;SDS011;62093;37.614;15.072;2023-06-26T08:31:23;13.20;;;6.68;;
73779;SDS011;62093;37.614;15.072;2023-06-26T08:33:49;13.03;;;6.47;;
73779;SDS011;62093;37.614;15.072;2023-06-26T08:36:15;11.63;;;6.57;;
73779;SDS011;62093;37.614;15.072;2023-06-26T08:38:41;14.85;;;6.65;;
73779;SDS011;62093;37.614;15.072;2023-06-26T08:41:08;13.15;;;6.55;;
73779;SDS011;62093;37.614;15.072;2023-06-26T08:43:34;10.50;;;6.10;;
73779;SDS011;62093;37.614;15.072;2023-06-26T08:46:01;11.82;;;6.60;;
73779;SDS011;62093;37.614;15.072;2023-06-26T08:48:29;14.27;;;6.75;;
73779;SDS011;62093;37.614;15.072;2023-06-26T08:50:58;11.15;;;6.50;;
73779;SDS011;62093;37.614;15.072;2023-06-26T08:56:02;13.77;;;6.30;;
73779;SDS011;62093;37.614;15.072;2023-06-26T08:58:28;11.82;;;6.20;;
73779;SDS011;62093;37.614;15.072;2023-06-26T09:00:54;13.80;;;6.88;;
73779;SDS011;62093;37.614;15.072;2023-06-26T09:03:21;11.48;;;6.93;;
73779;SDS011;62093;37.614;15.072;2023-06-26T09:05:48;11.15;;;6.78;;
73779;SDS011;62093;37.614;15.072;2023-06-26T09:08:14;11.23;;;6.93;;
73779;SDS011;62093;37.614;15.072;2023-06-26T09:10:39;12.32;;;6.30;;
73779;SDS011;62093;37.614;15.072;2023-06-26T09:13:06;10.33;;;6.40;;
73779;SDS011;62093;37.614;15.072;2023-06-26T09:15:38;11.95;;;7.07;;
73779;SDS011;62093;37.614;15.072;2023-06-26T09:18:07;11.88;;;6.88;;
73779;SDS011;62093;37.614;15.072;2023-06-26T09:20:33;11.40;;;6.28;;
73779;SDS011;62093;37.614;15.072;2023-06-26T09:22:59;10.07;;;6.57;;
73779;SDS011;62093;37.614;15.072;2023-06-26T09:25:26;13.95;;;6.95;;
73779;SDS011;62093;37.614;15.072;2023-06-26T09:27:53;11.32;;;6.38;;
73779;SDS011;62093;37.614;15.072;2023-06-26T09:30:19;10.88;;;6.22;;
73779;SDS011;62093;37.614;15.072;2023-06-26T09:32:45;11.52;;;6.85;;
73779;SDS011;62093;37.614;15.072;2023-06-26T09:35:11;11.90;;;6.87;;
73779;SDS011;62093;37.614;15.072;2023-06-26T09:37:37;11.50;;;6.47;;
73779;SDS011;62093;37.614;15.072;2023-06-26T09:40:03;10.65;;;6.28;;
73779;SDS011;62093;37.614;15.072;2023-06-26T09:42:30;11.70;;;6.70;;
73779;SDS011;62093;37.614;15.072;2023-06-26T09:44:56;11.90;;;6.67;;
73779;SDS011;62093;37.614;15.072;2023-06-26T09:47:22;12.63;;;7.13;;
73779;SDS011;62093;37.614;15.072;2023-06-26T09:49:48;13.00;;;7.30;;
73779;SDS011;62093;37.614;15.072;2023-06-26T09:52:14;11.75;;;6.68;;
73779;SDS011;62093;37.614;15.072;2023-06-26T09:54:45;13.03;;;7.00;;
73779;SDS011;62093;37.614;15.072;2023-06-26T09:57:12;14.00;;;7.65;;
73779;SDS011;62093;37.614;15.072;2023-06-26T09:59:41;13.43;;;6.88;;
73779;SDS011;62093;37.614;15.072;2023-06-26T10:02:09;12.00;;;6.90;;
73779;SDS011;62093;37.614;15.072;2023-06-26T10:04:36;12.90;;;6.82;;
73779;SDS011;62093;37.614;15.072;2023-06-26T10:07:03;11.93;;;6.97;;
73779;SDS011;62093;37.614;15.072;2023-06-26T10:09:31;14.18;;;7.78;;
73779;SDS011;62093;37.614;15.072;2023-06-26T10:12:07;13.55;;;7.88;;
73779;SDS011;62093;37.614;15.072;2023-06-26T10:14:41;14.00;;;7.10;;
73779;SDS011;62093;37.614;15.072;2023-06-26T10:17:09;12.27;;;7.20;;
73779;SDS011;62093;37.614;15.072;2023-06-26T10:19:39;12.70;;;7.30;;
73779;SDS011;62093;37.614;15.072;2023-06-26T10:22:09;12.40;;;7.63;;
73779;SDS011;62093;37.614;15.072;2023-06-26T10:24:41;12.95;;;7.05;;
73779;SDS011;62093;37.614;15.072;2023-06-26T10:27:17;12.15;;;7.18;;
73779;SDS011;62093;37.614;15.072;2023-06-26T10:29:55;12.33;;;7.90;;
73779;SDS011;62093;37.614;15.072;2023-06-26T10:32:24;13.93;;;8.02;;
73779;SDS011;62093;37.614;15.072;2023-06-26T10:34:51;13.05;;;7.35;;
73779;SDS011;62093;37.614;15.072;2023-06-26T10:37:18;12.93;;;7.40;;
73779;SDS011;62093;37.614;15.072;2023-06-26T10:42:14;12.98;;;7.97;;
73779;SDS011;62093;37.614;15.072;2023-06-26T10:44:45;13.63;;;8.13;;
73779;SDS011;62093;37.614;15.072;2023-06-26T10:47:28;13.20;;;7.85;;
73779;SDS011;62093;37.614;15.072;2023-06-26T10:50:16;11.77;;;7.18;;
73779;SDS011;62093;37.614;15.072;2023-06-26T10:52:45;12.63;;;7.70;;
73779;SDS011;62093;37.614;15.072;2023-06-26T10:55:11;13.85;;;7.50;;
73779;SDS011;62093;37.614;15.072;2023-06-26T10:57:38;14.40;;;7.40;;
73779;SDS011;62093;37.614;15.072;2023-06-26T11:00:14;12.55;;;8.07;;
73779;SDS011;62093;37.614;15.072;2023-06-26T11:02:52;12.83;;;7.70;;
73779;SDS011;62093;37.614;15.072;2023-06-26T11:05:28;13.48;;;7.32;;
73779;SDS011;62093;37.614;15.072;2023-06-26T11:08:05;14.10;;;8.70;;
73779;SDS011;62093;37.614;15.072;2023-06-26T11:10:48;12.25;;;8.18;;
73779;SDS011;62093;37.614;15.072;2023-06-26T11:13:18;12.80;;;7.38;;
73779;SDS011;62093;37.614;15.072;2023-06-26T11:15:49;11.87;;;7.67;;
73779;SDS011;62093;37.614;15.072;2023-06-26T11:18:15;12.95;;;8.40;;
73779;SDS011;62093;37.614;15.072;2023-06-26T11:20:42;13.20;;;7.63;;
73779;SDS011;62093;37.614;15.072;2023-06-26T11:23:08;15.48;;;7.97;;
73779;SDS011;62093;37.614;15.072;2023-06-26T11:25:34;14.82;;;7.97;;
73779;SDS011;62093;37.614;15.072;2023-06-26T11:28:02;12.90;;;7.67;;
73779;SDS011;62093;37.614;15.072;2023-06-26T11:30:29;11.02;;;7.18;;
73779;SDS011;62093;37.614;15.072;2023-06-26T11:33:04;13.30;;;8.63;;
73779;SDS011;62093;37.614;15.072;2023-06-26T11:35:33;11.82;;;8.10;;
73779;SDS011;62093;37.614;15.072;2023-06-26T11:38:00;12.05;;;7.80;;
73779;SDS011;62093;37.614;15.072;2023-06-26T11:40:33;11.97;;;7.80;;
73779;SDS011;62093;37.614;15.072;2023-06-26T11:43:02;12.65;;;8.15;;
73779;SDS011;62093;37.614;15.072;2023-06-26T11:45:29;12.02;;;7.82;;
73779;SDS011;62093;37.614;15.072;2023-06-26T11:47:57;14.50;;;8.20;;
73779;SDS011;62093;37.614;15.072;2023-06-26T11:50:25;12.57;;;8.18;;
73779;SDS011;62093;37.614;15.072;2023-06-26T11:52:55;14.20;;;8.10;;
73779;SDS011;62093;37.614;15.072;2023-06-26T11:55:23;13.80;;;8.10;;
73779;SDS011;62093;37.614;15.072;2023-06-26T11:57:49;13.23;;;7.80;;
73779;SDS011;62093;37.614;15.072;2023-06-26T12:00:18;11.95;;;8.05;;
73779;SDS011;62093;37.614;15.072;2023-06-26T12:02:45;11.85;;;7.65;;
73779;SDS011;62093;37.614;15.072;2023-06-26T12:05:14;11.93;;;7.57;;
73779;SDS011;62093;37.614;15.072;2023-06-26T12:07:42;14.45;;;7.90;;
73779;SDS011;62093;37.614;15.072;2023-06-26T12:10:11;11.27;;;7.35;;
73779;SDS011;62093;37.614;15.072;2023-06-26T12:12:38;13.52;;;7.60;;
73779;SDS011;62093;37.614;15.072;2023-06-26T12:15:05;12.27;;;7.20;;
73779;SDS011;62093;37.614;15.072;2023-06-26T12:17:33;12.67;;;6.80;;
73779;SDS011;62093;37.614;15.072;2023-06-26T12:19:58;11.35;;;7.38;;
73779;SDS011;62093;37.614;15.072;2023-06-26T12:22:24;11.68;;;6.93;;
73779;SDS011;62093;37.614;15.072;2023-06-26T12:24:59;11.33;;;7.20;;
73779;SDS011;62093;37.614;15.072;2023-06-26T12:27:25;14.32;;;6.80;;
73779;SDS011;62093;37.614;15.072;2023-06-26T12:29:52;11.07;;;6.75;;
73779;SDS011;62093;37.614;15.072;2023-06-26T12:32:19;12.25;;;7.18;;
73779;SDS011;62093;37.614;15.072;2023-06-26T12:34:49;11.30;;;6.93;;
73779;SDS011;62093;37.614;15.072;2023-06-26T12:37:15;10.80;;;7.05;;
73779;SDS011;62093;37.614;15.072;2023-06-26T12:39:45;10.85;;;7.00;;
73779;SDS011;62093;37.614;15.072;2023-06-26T12:42:24;10.45;;;6.85;;
73779;SDS011;62093;37.614;15.072;2023-06-26T12:44:54;10.05;;;6.80;;
73779;SDS011;62093;37.614;15.072;2023-06-26T12:47:25;11.20;;;6.93;;
73779;SDS011;62093;37.614;15.072;2023-06-26T12:49:53;12.15;;;7.32;;
73779;SDS011;62093;37.614;15.072;2023-06-26T12:52:19;9.68;;;6.25;;
73779;SDS011;62093;37.614;15.072;2023-06-26T12:54:46;10.43;;;6.47;;
73779;SDS011;62093;37.614;15.072;2023-06-26T12:57:16;10.70;;;6.53;;
73779;SDS011;62093;37.614;15.072;2023-06-26T12:59:42;11.55;;;6.60;;
73779;SDS011;62093;37.614;15.072;2023-06-26T13:02:08;10.75;;;6.55;;
73779;SDS011;62093;37.614;15.072;2023-06-26T13:04:36;9.63;;;6.57;;
73779;SDS011;62093;37.614;15.072;2023-06-26T13:07:05;11.27;;;6.87;;
73779;SDS011;62093;37.614;15.072;2023-06-26T13:09:32;10.35;;;6.30;;
73779;SDS011;62093;37.614;15.072;2023-06-26T13:12:00;9.57;;;6.20;;
73779;SDS011;62093;37.614;15.072;2023-06-26T13:14:29;8.93;;;6.10;;
73779;SDS011;62093;37.614;15.072;2023-06-26T13:16:56;10.68;;;6.50;;
73779;SDS011;62093;37.614;15.072;2023-06-26T13:19:21;10.70;;;6.50;;
73779;SDS011;62093;37.614;15.072;2023-06-26T13:21:47;10.40;;;6.70;;
73779;SDS011;62093;37.614;15.072;2023-06-26T13:24:13;10.13;;;6.70;;
73779;SDS011;62093;37.614;15.072;2023-06-26T13:26:39;9.15;;;5.90;;
73779;SDS011;62093;37.614;15.072;2023-06-26T13:29:05;11.00;;;6.72;;
73779;SDS011;62093;37.614;15.072;2023-06-26T13:31:31;11.30;;;6.50;;
73779;SDS011;62093;37.614;15.072;2023-06-26T13:33:58;10.35;;;6.20;;
73779;SDS011;62093;37.614;15.072;2023-06-26T13:36:24;10.32;;;6.55;;
73779;SDS011;62093;37.614;15.072;2023-06-26T13:38:50;9.32;;;6.15;;
73779;SDS011;62093;37.614;15.072;2023-06-26T13:41:24;10.43;;;6.43;;
73779;SDS011;62093;37.614;15.072;2023-06-26T13:43:50;10.13;;;5.57;;
73779;SDS011;62093;37.614;15.072;2023-06-26T13:46:17;8.45;;;6.05;;
73779;SDS011;62093;37.614;15.072;2023-06-26T13:48:46;10.00;;;5.65;;
73779;SDS011;62093;37.614;15.072;2023-06-26T13:51:11;9.73;;;6.20;;
73779;SDS011;62093;37.614;15.072;2023-06-26T13:53:37;11.20;;;6.20;;
73779;SDS011;62093;37.614;15.072;2023-06-26T13:56:03;9.70;;;6.37;;
73779;SDS011;62093;37.614;15.072;2023-06-26T13:58:29;9.52;;;6.00;;
73779;SDS011;62093;37.614;15.072;2023-06-26T14:00:58;10.32;;;5.90;;
73779;SDS011;62093;37.614;15.072;2023-06-26T14:03:26;9.75;;;5.63;;
73779;SDS011;62093;37.614;15.072;2023-06-26T14:05:55;10.80;;;6.37;;
73779;SDS011;62093;37.614;15.072;2023-06-26T14:08:20;8.77;;;6.18;;
73779;SDS011;62093;37.614;15.072;2023-06-26T14:10:47;9.85;;;5.32;;
73779;SDS011;62093;37.614;15.072;2023-06-26T14:13:13;10.63;;;5.90;;
73779;SDS011;62093;37.614;15.072;2023-06-26T14:15:41;8.60;;;5.55;;
73779;SDS011;62093;37.614;15.072;2023-06-26T14:18:07;8.73;;;5.88;;
73779;SDS011;62093;37.614;15.072;2023-06-26T14:20:33;9.07;;;5.70;;
73779;SDS011;62093;37.614;15.072;2023-06-26T14:23:01;8.95;;;5.97;;
73779;SDS011;62093;37.614;15.072;2023-06-26T14:25:27;9.43;;;5.80;;
73779;SDS011;62093;37.614;15.072;2023-06-26T14:27:57;8.82;;;5.85;;
73779;SDS011;62093;37.614;15.072;2023-06-26T14:30:23;9.93;;;6.45;;
73779;SDS011;62093;37.614;15.072;2023-06-26T14:32:49;8.52;;;5.45;;